Time;durP1;ratioP1;P1;durP2;ratioP2;P2;SDS_P1;SDS_P2;PMS_P1;PMS_P2;Temp;Humidity;BMP_temperature;BMP_pressure;BME280_temperature;BME280_humidity;BME280_pressure;Samples;Min_cycle;Max_cycle;Signal;HPM_P1;HPM_P2
2022/06/07 00:00:56;;;;;;;;;1.50;1.00;;;;;20.63;76.88;101270.59;5091353;28;44851;-87
2022/06/07 00:03:21;;;;;;;;;2.00;2.00;;;;;20.59;77.16;101254.75;5084725;28;45667;-90
2022/06/07 00:05:48;;;;;;;;;0.75;0.75;;;;;20.57;78.02;101266.16;5083982;28;46497;-91
2022/06/07 00:08:16;;;;;;;;;2.00;1.00;;;;;20.53;77.84;101261.69;5082052;28;45227;-92
2022/06/07 00:10:43;;;;;;;;;1.50;1.00;;;;;20.51;79.01;101262.56;5080077;28;45301;-91
2022/06/07 00:13:10;;;;;;;;;1.75;1.75;;;;;20.47;78.43;101259.03;5079533;27;45560;-90
2022/06/07 00:15:38;;;;;;;;;1.00;1.00;;;;;20.43;79.21;101262.47;5084511;28;45463;-88
2022/06/07 00:18:04;;;;;;;;;1.25;1.25;;;;;20.44;80.92;101258.09;5084994;28;45805;-87
2022/06/07 00:20:29;;;;;;;;;1.00;1.00;;;;;20.31;80.20;101244.81;5085854;28;45299;-85
2022/06/07 00:22:55;;;;;;;;;0.50;0.50;;;;;20.31;82.34;101249.19;5088522;28;45597;-82
2022/06/07 00:25:22;;;;;;;;;1.00;1.00;;;;;20.28;82.05;101250.03;5073928;28;46747;-90
2022/06/07 00:27:48;;;;;;;;;0.50;0.50;;;;;20.23;83.03;101247.34;5082971;28;45330;-87
2022/06/07 00:30:14;;;;;;;;;1.75;1.00;;;;;20.26;83.85;101239.50;5081013;28;45453;-89
2022/06/07 00:32:41;;;;;;;;;1.00;1.00;;;;;20.30;83.99;101245.69;5080343;27;45340;-89
2022/06/07 00:35:08;;;;;;;;;1.00;1.00;;;;;20.30;84.71;101253.56;5084836;28;46170;-89
2022/06/07 00:37:34;;;;;;;;;0.00;0.00;;;;;20.17;86.69;101233.25;5075605;28;45784;-84
2022/06/07 00:40:00;;;;;;;;;0.25;0.25;;;;;20.15;88.02;101229.72;5085580;28;45406;-91
2022/06/07 00:42:27;;;;;;;;;1.00;1.00;;;;;20.03;87.26;101217.31;5085371;28;45460;-92
2022/06/07 00:44:54;;;;;;;;;2.25;1.75;;;;;20.10;89.43;101221.78;5065447;28;47108;-92
2022/06/07 00:47:23;;;;;;;;;1.00;1.00;;;;;20.05;90.52;101224.34;5062744;28;45350;-90
2022/06/07 00:50:08;;;;;;;;;0.00;0.00;;;;;20.01;90.85;101213.78;5078949;28;45165;-91
2022/06/07 00:52:35;;;;;;;;;1.00;1.00;;;;;19.97;92.31;101215.50;5079460;28;45470;-89
2022/06/07 00:55:04;;;;;;;;;0.50;0.50;;;;;19.92;91.36;101199.66;5078894;28;45521;-90
2022/06/07 00:57:31;;;;;;;;;1.00;1.00;;;;;19.91;92.20;101189.16;5083887;27;45686;-92
2022/06/07 00:59:57;;;;;;;;;0.25;0.25;;;;;20.02;92.10;101202.41;5065736;28;45284;-89
2022/06/07 01:02:23;;;;;;;;;1.00;1.00;;;;;19.99;92.38;101191.84;5083090;28;45248;-92
2022/06/07 01:04:49;;;;;;;;;1.00;1.00;;;;;20.03;92.24;101198.91;5083728;28;45292;-89
2022/06/07 01:12:43;;;;;;;;;1.00;1.00;;;;;20.05;94.72;101211.19;5083020;28;45174;-92
2022/06/07 01:15:10;;;;;;;;;2.00;1.25;;;;;20.03;94.61;101207.66;5084330;27;45157;-88
2022/06/07 01:17:35;;;;;;;;;1.50;1.50;;;;;19.98;94.82;101204.13;5087458;27;45348;-92
2022/06/07 01:20:02;;;;;;;;;2.00;2.00;;;;;19.88;94.81;101183.84;5083311;27;45391;-91
2022/06/07 01:22:28;;;;;;;;;1.00;1.00;;;;;20.00;94.79;101199.78;5084147;28;45457;-89
2022/06/07 01:24:54;;;;;;;;;1.00;1.00;;;;;20.03;95.17;101191.91;5085262;28;46209;-77
2022/06/07 01:27:20;;;;;;;;;1.25;1.25;;;;;20.00;94.34;101178.75;5087814;27;45359;-90
2022/06/07 01:29:47;;;;;;;;;1.00;1.00;;;;;19.98;95.31;101182.22;5083923;28;45234;-88
2022/06/07 01:32:13;;;;;;;;;1.50;1.50;;;;;19.94;96.47;101181.28;5087838;27;45544;-89
2022/06/07 01:34:41;;;;;;;;;0.00;0.00;;;;;19.91;96.44;101176.88;5087400;27;45920;-88
2022/06/07 01:37:08;;;;;;;;;0.25;0.25;;;;;19.97;95.74;101185.72;5081788;27;45772;-91
2022/06/07 01:42:18;;;;;;;;;1.00;1.00;;;;;19.95;97.78;101188.31;5084667;28;45350;-92
2022/06/07 01:44:47;;;;;;;;;0.00;0.00;;;;;19.93;97.61;101180.41;5088241;28;46139;-92
2022/06/07 01:47:20;;;;;;;;;1.25;1.00;;;;;19.92;97.58;101180.41;5087146;27;45381;-88
2022/06/07 01:49:46;;;;;;;;;1.00;1.00;;;;;19.89;97.66;101172.47;5086679;28;45327;-91
2022/06/07 01:52:14;;;;;;;;;1.75;1.75;;;;;19.89;97.42;101189.09;5084616;27;45190;-88
2022/06/07 01:54:40;;;;;;;;;1.00;1.00;;;;;19.70;98.61;101156.47;5087291;28;46314;-93
2022/06/07 01:57:07;;;;;;;;;1.00;1.00;;;;;19.77;98.43;101163.53;5085292;28;45276;-93
2022/06/07 01:59:34;;;;;;;;;1.25;1.00;;;;;19.87;98.53;101174.19;5083304;27;45475;-92
2022/06/07 02:02:00;;;;;;;;;1.00;1.00;;;;;19.87;98.53;101177.69;5088215;28;45330;-89
2022/06/07 02:04:29;;;;;;;;;1.50;1.50;;;;;19.88;98.29;101170.72;5098689;28;46020;-87
2022/06/07 02:06:54;;;;;;;;;1.00;1.00;;;;;19.87;98.69;101172.44;5089772;28;45262;-85
2022/06/07 02:09:20;;;;;;;;;1.50;1.50;;;;;19.83;98.85;101159.22;5081307;28;45256;-87
2022/06/07 02:11:48;;;;;;;;;2.00;1.50;;;;;19.87;98.26;101163.69;5086505;28;45305;-92
2022/06/07 02:14:14;;;;;;;;;0.75;0.75;;;;;19.88;98.77;101170.72;5082131;28;46065;-92
2022/06/07 02:16:40;;;;;;;;;1.25;1.25;;;;;19.86;99.44;101162.81;5081450;28;45322;-92
2022/06/07 02:19:07;;;;;;;;;2.50;2.00;;;;;19.86;99.91;101160.19;5080896;28;45239;-92
2022/06/07 02:21:33;;;;;;;;;4.00;1.00;;;;;19.82;100.00;101153.09;5080888;27;45277;-90
2022/06/07 02:23:59;;;;;;;;;2.75;2.75;;;;;19.81;100.00;101151.31;5081307;27;45823;-91
2022/06/07 02:26:48;;;;;;;;;1.00;1.00;;;;;19.86;100.00;101143.53;5086504;28;45218;-86
2022/06/07 02:29:29;;;;;;;;;2.00;1.50;;;;;19.89;100.00;101154.09;5088058;28;45467;-91
2022/06/07 02:32:09;;;;;;;;;2.00;2.00;;;;;19.81;100.00;101130.31;5087426;28;45124;-88
2022/06/07 02:34:38;;;;;;;;;1.25;1.25;;;;;19.85;100.00;101139.09;5086607;28;45296;-90
2022/06/07 02:37:06;;;;;;;;;2.75;1.75;;;;;19.87;100.00;101135.66;5085043;27;45718;-92
2022/06/07 02:39:33;;;;;;;;;2.00;1.50;;;;;19.88;100.00;101134.78;5081256;28;45301;-91
2022/06/07 02:42:03;;;;;;;;;1.75;1.00;;;;;19.89;100.00;101141.81;5080658;28;45347;-91
2022/06/07 02:44:29;;;;;;;;;1.00;1.00;;;;;19.88;100.00;101133.91;5080999;27;46532;-91
2022/06/07 02:46:54;;;;;;;;;1.00;1.00;;;;;19.87;100.00;101129.53;5080461;27;45282;-87
2022/06/07 02:49:20;;;;;;;;;1.75;1.00;;;;;19.92;100.00;101128.72;5084984;28;45494;-91
2022/06/07 02:51:46;;;;;;;;;2.00;1.00;;;;;19.94;100.00;101120.84;5097886;27;45371;-90
2022/06/07 02:54:12;;;;;;;;;1.00;1.00;;;;;19.94;100.00;101118.22;5092568;28;45466;-93
2022/06/07 02:56:38;;;;;;;;;1.00;1.00;;;;;19.97;100.00;101118.25;5084200;28;45195;-92
2022/06/07 02:59:04;;;;;;;;;3.00;2.00;;;;;19.98;100.00;101124.41;5081652;28;45309;-91
2022/06/07 03:01:30;;;;;;;;;2.25;2.00;;;;;19.97;100.00;101122.63;5083412;27;45427;-92
2022/06/07 03:03:58;;;;;;;;;1.00;1.00;;;;;20.00;100.00;101120.91;5084500;28;45281;-88
2022/06/07 03:06:25;;;;;;;;;1.50;1.50;;;;;20.00;100.00;101114.75;5085066;28;45336;-86
2022/06/07 03:08:51;;;;;;;;;1.00;1.00;;;;;19.99;100.00;101106.00;5095175;27;45271;-91
2022/06/07 03:11:16;;;;;;;;;1.75;1.50;;;;;20.03;100.00;101109.56;5108812;27;45365;-94
2022/06/07 03:13:42;;;;;;;;;1.50;1.50;;;;;19.91;100.00;101098.03;5090016;27;46710;-95
2022/06/07 03:16:08;;;;;;;;;1.50;1.50;;;;;19.95;100.00;101115.63;5106398;27;45353;-96
2022/06/07 03:18:34;;;;;;;;;2.25;1.75;;;;;19.95;100.00;101115.63;5106328;27;45239;-95
2022/06/07 03:21:00;;;;;;;;;2.00;2.00;;;;;19.87;100.00;101108.50;5102245;27;44846;-96
2022/06/07 03:23:27;;;;;;;;;1.00;1.00;;;;;19.88;100.00;101111.13;5091284;27;45655;-95
2022/06/07 03:26:05;;;;;;;;;2.75;1.00;;;;;19.83;100.00;101106.66;5083697;27;45452;-93
2022/06/07 03:28:31;;;;;;;;;2.00;2.00;;;;;19.85;100.00;101123.34;5114878;27;45203;-82
2022/06/07 03:31:04;;;;;;;;;1.00;1.00;;;;;19.78;100.00;101106.63;5080010;28;44957;-82
2022/06/07 03:33:30;;;;;;;;;2.00;2.00;;;;;19.73;100.00;101108.31;5076937;27;45478;-93
2022/06/07 03:36:06;;;;;;;;;1.00;1.00;;;;;19.75;100.00;101109.22;5085240;28;45271;-94
2022/06/07 03:38:32;;;;;;;;;3.25;2.00;;;;;19.79;100.00;101121.50;5082334;28;45393;-89
2022/06/07 03:40:57;;;;;;;;;2.75;2.00;;;;;19.77;100.00;101120.59;5080319;28;45621;-91
2022/06/07 03:43:23;;;;;;;;;1.00;1.00;;;;;19.73;100.00;101111.81;5079962;28;45453;-92
2022/06/07 03:45:49;;;;;;;;;2.00;2.00;;;;;19.72;100.00;101110.03;5079784;28;45351;-92
2022/06/07 03:48:15;;;;;;;;;3.00;2.00;;;;;19.69;100.00;101112.66;5080486;28;45320;-86
2022/06/07 03:50:40;;;;;;;;;2.00;1.75;;;;;19.72;100.00;101117.94;5080119;27;45519;-81
2022/06/07 03:53:06;;;;;;;;;1.50;1.50;;;;;19.66;100.00;101107.38;5079429;27;45363;-86
2022/06/07 03:55:32;;;;;;;;;2.00;2.00;;;;;19.67;100.00;101101.25;5082173;28;45315;-83
2022/06/07 03:57:58;;;;;;;;;2.00;2.00;;;;;19.72;100.00;101117.94;5082436;28;45194;-81
2022/06/07 04:00:24;;;;;;;;;2.50;2.50;;;;;19.63;100.00;101102.97;5083630;28;45371;-86
2022/06/07 04:02:49;;;;;;;;;2.00;2.00;;;;;19.67;100.00;101116.09;5065433;28;46725;-87
2022/06/07 04:05:15;;;;;;;;;1.25;1.25;;;;;19.65;100.00;101116.09;5064301;28;45331;-86
2022/06/07 04:10:25;;;;;;;;;3.00;1.25;;;;;19.67;100.00;101124.00;5085698;27;45288;-77
2022/06/07 04:12:51;;;;;;;;;1.00;1.00;;;;;19.65;100.00;101113.47;5092877;28;45525;-94
2022/06/07 04:15:17;;;;;;;;;1.75;1.75;;;;;19.65;100.00;101113.47;5086354;28;45429;-95
2022/06/07 04:17:43;;;;;;;;;1.25;1.25;;;;;19.58;100.00;101103.78;5063038;28;45320;-92
2022/06/07 04:20:10;;;;;;;;;2.50;1.00;;;;;19.58;100.00;101104.63;5085918;27;45431;-89
2022/06/07 04:22:36;;;;;;;;;1.75;1.75;;;;;19.49;100.00;101109.78;5081031;27;45360;-89
2022/06/07 04:25:03;;;;;;;;;1.00;1.00;;;;;19.45;100.00;101118.47;5083305;28;44978;-90
2022/06/07 04:27:29;;;;;;;;;1.25;1.00;;;;;19.40;100.00;101113.16;5060878;28;45468;-90
2022/06/07 04:29:55;;;;;;;;;1.25;1.00;;;;;19.38;100.00;101111.38;5082394;28;45544;-90
2022/06/07 04:32:21;;;;;;;;;1.00;1.00;;;;;19.33;100.00;101116.56;5082893;27;45527;-87
2022/06/07 04:34:46;;;;;;;;;2.00;2.00;;;;;19.25;100.00;101108.59;5078222;28;45371;-89
2022/06/07 04:37:12;;;;;;;;;1.00;1.00;;;;;19.28;100.00;101120.88;5079152;28;45491;-90
2022/06/07 04:39:37;;;;;;;;;1.00;1.00;;;;;19.28;100.00;101110.34;5082904;28;44758;-90
2022/06/07 04:42:04;;;;;;;;;1.00;1.00;;;;;19.27;100.00;101114.75;5086295;28;45246;-90
2022/06/07 04:44:30;;;;;;;;;1.25;1.25;;;;;19.25;100.00;101103.34;5088329;27;45285;-89
2022/06/07 04:46:56;;;;;;;;;2.00;2.00;;;;;19.18;100.00;101101.50;5086189;28;45254;-89
2022/06/07 04:49:22;;;;;;;;;1.00;1.00;;;;;19.26;100.00;101114.72;5067334;28;45227;-90
2022/06/07 04:51:48;;;;;;;;;2.00;1.00;;;;;19.29;100.00;101109.50;5082123;27;48010;-87
2022/06/07 04:54:14;;;;;;;;;1.75;1.75;;;;;19.22;100.00;101111.16;5084752;28;45204;-89
2022/06/07 04:56:39;;;;;;;;;1.75;1.75;;;;;19.22;100.00;101120.78;5084043;27;45424;-93
2022/06/07 04:59:07;;;;;;;;;0.25;0.25;;;;;19.21;100.00;101112.06;5082977;27;45284;-90
2022/06/07 05:01:36;;;;;;;;;1.00;1.00;;;;;19.20;100.00;101109.38;5091450;27;45285;-86
2022/06/07 05:04:03;;;;;;;;;1.00;1.00;;;;;19.16;100.00;101109.34;5091736;27;45216;-90
2022/06/07 05:06:29;;;;;;;;;1.00;1.00;;;;;19.17;100.00;101115.47;5097922;27;45200;-91
2022/06/07 05:08:58;;;;;;;;;1.00;1.00;;;;;19.10;100.00;101108.38;5092134;27;45324;-85
2022/06/07 05:11:25;;;;;;;;;1.00;1.00;;;;;19.13;100.00;101114.56;5108140;27;45333;-84
2022/06/07 05:13:56;;;;;;;;;3.00;1.00;;;;;19.14;100.00;101110.19;5108441;27;45797;-87
2022/06/07 05:16:23;;;;;;;;;1.75;1.75;;;;;19.12;100.00;101112.78;5098797;27;45395;-86
2022/06/07 05:18:49;;;;;;;;;1.00;1.00;;;;;19.10;100.00;101116.25;5113155;27;44950;-88
2022/06/07 05:21:16;;;;;;;;;2.00;2.00;;;;;19.08;100.00;101110.09;5109809;27;45641;-90
2022/06/07 05:23:42;;;;;;;;;1.25;1.25;;;;;19.00;100.00;101103.00;5109159;27;44913;-86
2022/06/07 05:26:12;;;;;;;;;1.75;1.75;;;;;19.09;100.00;101112.72;5101795;27;45150;-90
2022/06/07 05:28:41;;;;;;;;;1.00;1.00;;;;;19.09;100.00;101115.34;5094201;27;45328;-92
2022/06/07 05:31:07;;;;;;;;;2.00;2.00;;;;;19.07;100.00;101106.56;5067546;27;46925;-90
2022/06/07 05:33:32;;;;;;;;;2.00;2.00;;;;;19.13;100.00;101125.06;5083830;27;45352;-90
2022/06/07 05:35:58;;;;;;;;;2.00;2.00;;;;;19.12;100.00;101114.50;5091136;27;45432;-90
2022/06/07 05:38:25;;;;;;;;;1.00;1.00;;;;;19.14;100.00;101115.44;5090886;27;45528;-88
2022/06/07 05:40:51;;;;;;;;;0.00;0.00;;;;;19.17;100.00;101116.34;5084897;28;45398;-91
2022/06/07 05:43:17;;;;;;;;;3.00;1.25;;;;;19.19;100.00;101116.38;5083037;27;45319;-89
2022/06/07 05:45:50;;;;;;;;;2.00;2.00;;;;;19.15;100.00;101119.81;5086618;27;45378;-90
2022/06/07 05:48:16;;;;;;;;;1.50;1.50;;;;;19.09;100.00;101115.34;5088675;27;45347;-89
2022/06/07 05:50:48;;;;;;;;;1.50;1.50;;;;;19.17;100.00;101121.59;5065629;28;46875;-87
2022/06/07 05:53:15;;;;;;;;;1.00;1.00;;;;;19.17;100.00;101137.34;5077352;27;45761;-91
2022/06/07 05:55:41;;;;;;;;;1.00;1.00;;;;;19.09;100.00;101131.09;5080842;27;45339;-84
2022/06/07 05:58:07;;;;;;;;;1.50;1.00;;;;;19.02;100.00;101127.50;5076191;27;45358;-82
2022/06/07 06:00:33;;;;;;;;;1.00;1.00;;;;;19.01;100.00;101138.84;5079392;27;45495;-80
2022/06/07 06:02:59;;;;;;;;;1.00;1.00;;;;;18.94;100.00;101118.66;5078552;27;45414;-80
2022/06/07 06:05:24;;;;;;;;;1.00;1.00;;;;;18.99;100.00;101131.84;5087516;27;45457;-76
2022/06/07 06:10:34;;;;;;;;;1.25;1.00;;;;;18.95;100.00;101132.66;5089598;27;45792;-78
2022/06/07 06:13:00;;;;;;;;;1.00;1.00;;;;;18.85;100.00;101123.72;5060825;28;45476;-83
2022/06/07 06:15:26;;;;;;;;;2.00;1.00;;;;;18.84;100.00;101128.06;5084649;27;45417;-83
2022/06/07 06:17:52;;;;;;;;;2.00;1.00;;;;;18.84;100.00;101120.19;5068973;27;45446;-80
2022/06/07 06:20:18;;;;;;;;;1.00;1.00;;;;;19.00;100.00;101134.50;5068646;28;45620;-82
2022/06/07 06:22:43;;;;;;;;;1.00;1.00;;;;;19.01;100.00;101138.84;5077617;28;45422;-80
2022/06/07 06:25:10;;;;;;;;;1.00;1.00;;;;;18.95;100.00;101130.91;5079156;27;45712;-79
2022/06/07 06:27:36;;;;;;;;;1.75;1.75;;;;;18.99;100.00;101134.44;5058820;28;45450;-78
2022/06/07 06:30:02;;;;;;;;;1.75;0.75;;;;;19.05;100.00;101145.06;5059016;28;46733;-78
2022/06/07 06:32:27;;;;;;;;;1.00;1.00;;;;;19.08;100.00;101139.84;5077762;27;45715;-78
2022/06/07 06:34:53;;;;;;;;;2.25;1.00;;;;;19.03;100.00;101136.28;5078046;27;45410;-76
2022/06/07 06:37:19;;;;;;;;;2.00;1.00;;;;;19.10;100.00;101146.00;5076377;27;45665;-79
2022/06/07 06:39:45;;;;;;;;;1.00;1.00;;;;;19.13;100.00;101159.19;5083527;27;46122;-78
2022/06/07 06:42:11;;;;;;;;;1.00;1.00;;;;;19.11;100.00;101162.66;5095867;27;45764;-76
2022/06/07 06:44:37;;;;;;;;;1.00;1.00;;;;;19.11;100.00;101155.63;5087963;27;45549;-77
2022/06/07 06:47:03;;;;;;;;;1.00;1.00;;;;;19.15;100.00;101162.72;5079675;28;45529;-77
2022/06/07 06:49:29;;;;;;;;;0.25;0.25;;;;;19.08;100.00;101152.97;5083111;28;45609;-77
2022/06/07 06:51:56;;;;;;;;;1.25;1.25;;;;;19.13;100.00;101163.53;5079483;28;45748;-77
2022/06/07 06:54:22;;;;;;;;;1.00;0.75;;;;;19.14;100.00;101166.19;5058882;27;45577;-77
2022/06/07 06:56:49;;;;;;;;;0.25;0.25;;;;;19.07;100.00;101174.81;5077546;28;45621;-77
2022/06/07 06:59:18;;;;;;;;;0.00;0.00;;;;;19.06;100.00;101173.03;5077013;28;46082;-75
2022/06/07 07:01:44;;;;;;;;;2.00;1.00;;;;;18.99;100.00;101161.59;5077427;28;45681;-77
2022/06/07 07:04:17;;;;;;;;;0.25;0.00;;;;;18.84;100.00;101156.06;5077568;27;45413;-79
2022/06/07 07:06:45;;;;;;;;;0.75;0.75;;;;;18.95;100.00;101148.41;5076435;28;45267;-77
2022/06/07 07:09:13;;;;;;;;;0.25;0.25;;;;;19.04;100.00;101180.03;5077007;28;45352;-77
2022/06/07 07:11:51;;;;;;;;;0.75;0.75;;;;;19.07;100.00;101173.94;5077317;27;45371;-78
2022/06/07 07:14:17;;;;;;;;;0.25;0.25;;;;;19.12;100.00;101173.16;5077358;27;45477;-77
2022/06/07 07:16:49;;;;;;;;;0.00;0.00;;;;;19.14;100.00;101176.69;5077284;28;45486;-76
2022/06/07 07:19:16;;;;;;;;;0.00;0.00;;;;;19.15;100.00;101172.31;5076545;27;45321;-76
2022/06/07 07:21:46;;;;;;;;;2.00;0.00;;;;;19.25;100.00;101183.84;5077175;27;45335;-78
2022/06/07 07:24:15;;;;;;;;;1.75;1.00;;;;;19.18;100.00;101167.13;5077214;28;45324;-78
2022/06/07 07:26:43;;;;;;;;;0.00;0.00;;;;;19.33;100.00;101185.69;5077274;28;45525;-77
2022/06/07 07:29:10;;;;;;;;;0.75;0.00;;;;;19.32;100.00;101180.44;5076527;28;45387;-76
2022/06/07 07:31:36;;;;;;;;;0.25;0.00;;;;;19.33;100.00;101177.81;5080774;28;45787;-77
2022/06/07 07:34:03;;;;;;;;;2.00;0.00;;;;;19.26;100.00;101172.50;5064838;27;45439;-77
2022/06/07 07:36:29;;;;;;;;;0.00;0.00;;;;;19.27;100.00;101180.38;5078086;28;45499;-77
2022/06/07 07:38:56;;;;;;;;;0.00;0.00;;;;;19.28;100.00;101173.38;5076327;28;46054;-76
2022/06/07 07:41:35;;;;;;;;;0.50;0.00;;;;;19.36;100.00;101181.34;5076901;28;45850;-77
2022/06/07 07:44:03;;;;;;;;;0.00;0.00;;;;;19.29;100.00;101162.00;5076643;27;45311;-76
2022/06/07 07:46:32;;;;;;;;;0.00;0.00;;;;;19.43;100.00;101193.75;5076944;28;45389;-75
2022/06/07 07:48:59;;;;;;;;;0.00;0.00;;;;;19.48;100.00;101182.44;5076620;28;45312;-78
2022/06/07 07:51:27;;;;;;;;;1.00;0.00;;;;;19.54;100.00;101181.66;5078554;28;45304;-80
2022/06/07 07:53:55;;;;;;;;;1.25;0.00;;;;;19.54;100.00;101181.66;5076978;28;45401;-77
2022/06/07 07:56:21;;;;;;;;;0.00;0.00;;;;;19.62;100.00;101186.97;5077190;28;45522;-78
2022/06/07 07:58:48;;;;;;;;;0.00;0.00;;;;;19.65;100.00;101192.28;5076388;28;46378;-79
2022/06/07 08:01:16;;;;;;;;;0.00;0.00;;;;;19.72;100.00;101182.75;5076257;28;45455;-79
2022/06/07 08:03:43;;;;;;;;;0.00;0.00;;;;;19.72;100.00;101190.63;5076484;28;45378;-78
2022/06/07 08:06:12;;;;;;;;;1.00;0.00;;;;;19.69;100.00;101188.84;5076586;28;45689;-78
2022/06/07 08:08:39;;;;;;;;;0.25;0.25;;;;;19.71;100.00;101176.59;5076150;28;45648;-78
2022/06/07 08:11:05;;;;;;;;;1.00;1.00;;;;;19.75;100.00;101180.16;5076240;28;45267;-81
2022/06/07 08:13:32;;;;;;;;;0.50;0.50;;;;;19.85;100.00;101200.44;5076418;28;45497;-80
2022/06/07 08:15:58;;;;;;;;;2.00;1.00;;;;;19.80;100.00;101183.72;5081286;27;45532;-80
2022/06/07 08:18:24;;;;;;;;;1.00;1.00;;;;;19.84;100.00;101187.25;5084089;28;45257;-80
2022/06/07 08:20:51;;;;;;;;;1.00;1.00;;;;;19.82;100.00;101176.72;5061037;28;45265;-80
2022/06/07 08:23:17;;;;;;;;;2.00;1.00;;;;;19.91;100.00;101183.91;5061025;28;45393;-80
2022/06/07 08:25:42;;;;;;;;;0.25;0.25;;;;;19.91;100.00;101184.75;5076671;28;45600;-79
2022/06/07 08:28:08;;;;;;;;;1.00;1.00;;;;;19.92;100.00;101185.66;5076237;28;46434;-80
2022/06/07 08:30:37;;;;;;;;;0.75;0.75;;;;;19.93;100.00;101190.03;5076090;27;45371;-80
2022/06/07 08:37:32;;;;;;;;;2.00;1.00;;;;;19.97;100.00;101181.31;5075937;28;45414;-80
2022/06/07 08:38:32;;;;;;;;;1.00;0.00;;;;;20.13;100.00;101179.75;5075788;27;45471;-80
2022/06/07 08:40:58;;;;;;;;;1.00;1.00;;;;;20.18;100.00;101169.28;5075701;27;45316;-79
2022/06/07 08:43:25;;;;;;;;;0.50;0.00;;;;;20.30;100.00;101182.56;5075894;28;45389;-79
2022/06/07 08:45:54;;;;;;;;;1.00;1.00;;;;;20.22;100.00;101169.34;5076375;27;45619;-79
2022/06/07 08:48:27;;;;;;;;;1.00;1.00;;;;;20.27;100.00;101177.28;5075961;27;46403;-79
2022/06/07 08:51:05;;;;;;;;;1.25;1.00;;;;;20.27;100.00;101174.63;5076197;27;45296;-79
2022/06/07 08:53:37;;;;;;;;;1.00;1.00;;;;;20.33;100.00;101176.44;5076004;28;45239;-79
2022/06/07 08:56:15;;;;;;;;;1.25;1.00;;;;;20.29;100.00;101167.66;5075801;27;45523;-78
2022/06/07 08:58:44;;;;;;;;;1.00;1.00;;;;;20.38;100.00;101173.00;5075534;27;45398;-78
2022/06/07 09:01:22;;;;;;;;;1.00;1.00;;;;;20.41;100.00;101175.69;5080734;27;45371;-78
2022/06/07 09:04:14;;;;;;;;;1.00;1.00;;;;;20.37;100.00;101160.72;5082939;28;45263;-78
2022/06/07 09:06:43;;;;;;;;;1.50;1.50;;;;;20.51;100.00;101178.38;5076968;27;45265;-78
2022/06/07 09:09:11;;;;;;;;;1.00;1.00;;;;;20.55;100.00;101178.44;5075840;28;45390;-79
2022/06/07 09:14:53;;;;;;;;;0.00;0.00;;;;;20.46;100.00;101169.59;5075486;28;45485;-79
2022/06/07 09:17:51;;;;;;;;;1.00;1.00;;;;;20.47;100.00;101197.63;5075725;27;45542;-79
2022/06/07 09:20:35;;;;;;;;;0.00;0.00;;;;;20.34;100.00;101183.47;5070860;28;45747;-80
2022/06/07 09:23:31;;;;;;;;;0.00;0.00;;;;;20.21;100.00;101193.84;5052874;28;45351;-78
2022/06/07 09:26:11;;;;;;;;;0.00;0.00;;;;;20.15;100.00;101190.28;5074065;28;45381;-79
2022/06/07 09:28:37;;;;;;;;;0.00;0.00;;;;;20.02;100.00;101177.03;5074634;28;45489;-80
2022/06/07 09:31:11;;;;;;;;;1.50;0.00;;;;;19.99;100.00;101176.06;5078473;28;45901;-78
2022/06/07 09:33:50;;;;;;;;;0.00;0.00;;;;;20.02;100.00;101190.16;5078314;27;45712;-78
2022/06/07 09:36:32;;;;;;;;;0.50;0.50;;;;;20.01;100.00;101185.75;5078528;28;45399;-78
2022/06/07 09:39:15;;;;;;;;;1.00;1.00;;;;;20.01;100.00;101175.25;5078707;28;45447;-79
2022/06/07 09:41:45;;;;;;;;;0.50;0.00;;;;;20.09;100.00;101181.47;5078245;28;46289;-79
2022/06/07 09:44:20;;;;;;;;;0.25;0.25;;;;;20.14;100.00;101184.16;5077820;28;45754;-79
2022/06/07 09:46:58;;;;;;;;;3.50;2.75;;;;;20.15;100.00;101187.66;5081121;28;45299;-79
2022/06/07 09:49:27;;;;;;;;;2.00;2.00;;;;;20.15;100.00;101169.25;5080551;28;45181;-79
2022/06/07 09:51:53;;;;;;;;;1.25;1.25;;;;;20.09;100.00;101168.34;5079016;27;45468;-79
2022/06/07 09:54:22;;;;;;;;;1.25;1.25;;;;;20.13;100.00;101171.88;5079150;28;45777;-79
2022/06/07 09:57:02;;;;;;;;;2.00;2.00;;;;;20.16;100.00;101171.00;5078242;28;45278;-83
2022/06/07 09:59:54;;;;;;;;;2.00;2.00;;;;;20.18;100.00;101171.91;5078675;28;45383;-79
2022/06/07 10:02:44;;;;;;;;;0.00;0.00;;;;;20.29;99.75;101175.53;5072721;27;47327;-80
2022/06/07 10:05:54;;;;;;;;;0.25;0.25;;;;;20.39;99.66;101161.63;5077902;28;45413;-79
2022/06/07 10:08:23;;;;;;;;;1.00;1.00;;;;;20.48;100.00;101166.09;5078397;27;45223;-79
2022/06/07 10:11:02;;;;;;;;;0.50;0.50;;;;;20.60;100.00;101167.09;5077144;28;45554;-80
2022/06/07 10:13:40;;;;;;;;;0.50;0.50;;;;;20.77;99.84;101160.22;5078096;28;45305;-79
2022/06/07 10:16:17;;;;;;;;;0.00;0.00;;;;;20.85;97.18;101152.41;5078079;28;45752;-79
2022/06/07 10:19:01;;;;;;;;;2.00;0.00;;;;;20.92;94.04;101155.97;5078277;28;45339;-78
2022/06/07 10:21:49;;;;;;;;;0.00;0.00;;;;;20.91;94.96;101160.34;5078420;28;45392;-79
2022/06/07 10:24:32;;;;;;;;;2.00;2.00;;;;;20.91;95.70;101157.72;5077829;28;45315;-79
2022/06/07 10:26:57;;;;;;;;;1.00;1.00;;;;;20.91;91.56;101152.44;5078794;28;45616;-80
2022/06/07 10:29:31;;;;;;;;;1.00;1.00;;;;;20.94;91.27;101157.75;5092263;28;45366;-79
2022/06/07 10:32:16;;;;;;;;;0.00;0.00;;;;;21.07;89.94;101155.19;5086979;28;45342;-78
2022/06/07 10:34:42;;;;;;;;;1.00;1.00;;;;;21.23;88.60;101153.53;5083902;27;46390;-80
2022/06/07 10:37:35;;;;;;;;;0.00;0.00;;;;;21.33;88.51;101152.72;5078641;28;45425;-78
2022/06/07 10:40:18;;;;;;;;;2.00;1.00;;;;;21.39;88.67;101151.88;5077648;28;45337;-77
2022/06/07 10:42:51;;;;;;;;;1.00;1.00;;;;;21.37;88.56;101138.72;5078168;28;45423;-76
2022/06/07 10:45:19;;;;;;;;;2.00;0.25;;;;;21.38;86.14;101150.13;5077217;28;45395;-76
2022/06/07 10:48:06;;;;;;;;;0.00;0.00;;;;;21.33;82.74;101144.81;5078240;28;45264;-74
2022/06/07 10:50:55;;;;;;;;;0.00;0.00;;;;;21.30;80.10;101150.97;5077395;27;45369;-79
2022/06/07 10:53:31;;;;;;;;;0.00;0.00;;;;;21.28;81.60;101149.16;5076530;28;45287;-77
2022/06/07 10:56:10;;;;;;;;;0.75;0.50;;;;;21.32;81.61;101158.88;5077758;28;46345;-78
2022/06/07 10:58:38;;;;;;;;;1.75;1.00;;;;;21.36;81.46;101155.38;5077597;28;45673;-79
2022/06/07 11:01:13;;;;;;;;;2.00;0.00;;;;;21.36;80.26;101151.84;5077860;28;45367;-89
2022/06/07 11:03:48;;;;;;;;;0.00;0.00;;;;;21.33;79.96;101152.72;5080262;28;45425;-86
2022/06/07 11:09:19;;;;;;;;;1.00;1.00;;;;;21.15;79.62;101149.13;5076842;28;45344;-79
2022/06/07 11:11:47;;;;;;;;;0.25;0.25;;;;;21.16;79.36;101161.41;5077389;28;45349;-79
2022/06/07 11:14:25;;;;;;;;;2.75;1.25;;;;;21.14;79.87;101157.00;5075977;28;45510;-80
2022/06/07 11:17:01;;;;;;;;;0.50;0.50;;;;;21.17;77.53;101157.88;5077760;28;46343;-80
2022/06/07 11:19:27;;;;;;;;;1.00;0.00;;;;;21.23;75.44;101146.50;5085568;28;45235;-79
2022/06/07 11:22:03;;;;;;;;;1.00;0.25;;;;;21.25;75.00;101147.41;5083264;28;45378;-80
2022/06/07 11:24:32;;;;;;;;;1.00;1.00;;;;;21.38;76.16;101140.44;5077795;28;45445;-79
2022/06/07 11:27:03;;;;;;;;;1.00;1.00;;;;;21.45;76.34;101141.38;5076957;28;45979;-80
2022/06/07 11:29:32;;;;;;;;;0.25;0.25;;;;;21.45;76.02;101157.16;5078590;28;45692;-79
2022/06/07 11:32:00;;;;;;;;;0.00;0.00;;;;;21.38;77.29;101147.47;5077271;28;45291;-79
2022/06/07 11:34:34;;;;;;;;;2.00;1.00;;;;;21.31;79.17;101150.09;5077297;28;45577;-80
2022/06/07 11:37:15;;;;;;;;;0.75;0.75;;;;;21.39;79.32;101154.50;5075383;28;47788;-83
2022/06/07 11:39:40;;;;;;;;;1.00;1.00;;;;;21.41;79.86;101156.28;5075681;28;45565;-78
2022/06/07 11:42:21;;;;;;;;;1.00;1.00;;;;;21.45;80.88;101144.91;5077007;28;45522;-78
2022/06/07 11:45:02;;;;;;;;;0.00;0.00;;;;;21.57;80.09;101156.38;5077270;28;45300;-78
2022/06/07 11:47:33;;;;;;;;;0.50;0.50;;;;;21.62;77.41;101152.00;5076655;28;46048;-84
2022/06/07 11:50:04;;;;;;;;;1.00;0.00;;;;;21.74;76.25;101122.22;5077421;28;45633;-82
2022/06/07 11:52:51;;;;;;;;;0.00;0.00;;;;;21.86;74.16;101146.00;5076359;28;45241;-76